sensor_id;sensor_type;location;lat;lon;timestamp;P1;durP1;ratioP1;P2;durP2;ratioP2
53269;SDS011;39159;45.634;9.420;2023-06-22T00:01:17;14.10;;;6.90;;
53269;SDS011;39159;45.634;9.420;2023-06-22T00:03:44;13.18;;;7.13;;
53269;SDS011;39159;45.634;9.420;2023-06-22T00:06:09;11.30;;;7.18;;
53269;SDS011;39159;45.634;9.420;2023-06-22T00:08:35;14.60;;;6.78;;
53269;SDS011;39159;45.634;9.420;2023-06-22T00:11:00;12.75;;;6.82;;
53269;SDS011;39159;45.634;9.420;2023-06-22T00:13:26;10.60;;;6.90;;
53269;SDS011;39159;45.634;9.420;2023-06-22T00:15:51;11.82;;;7.03;;
53269;SDS011;39159;45.634;9.420;2023-06-22T00:18:17;15.50;;;7.13;;
53269;SDS011;39159;45.634;9.420;2023-06-22T00:20:42;13.35;;;6.75;;
53269;SDS011;39159;45.634;9.420;2023-06-22T00:23:10;9.85;;;6.65;;
53269;SDS011;39159;45.634;9.420;2023-06-22T00:25:37;12.40;;;6.85;;
53269;SDS011;39159;45.634;9.420;2023-06-22T00:28:05;11.45;;;7.28;;
53269;SDS011;39159;45.634;9.420;2023-06-22T00:30:31;15.23;;;7.38;;
53269;SDS011;39159;45.634;9.420;2023-06-22T00:32:57;10.77;;;6.97;;
53269;SDS011;39159;45.634;9.420;2023-06-22T00:35:24;13.57;;;6.90;;
53269;SDS011;39159;45.634;9.420;2023-06-22T00:37:56;10.75;;;6.85;;
53269;SDS011;39159;45.634;9.420;2023-06-22T00:40:25;13.95;;;7.40;;
53269;SDS011;39159;45.634;9.420;2023-06-22T00:42:55;11.82;;;7.43;;
53269;SDS011;39159;45.634;9.420;2023-06-22T00:45:23;15.95;;;7.82;;
53269;SDS011;39159;45.634;9.420;2023-06-22T00:47:53;15.57;;;8.15;;
53269;SDS011;39159;45.634;9.420;2023-06-22T00:50:20;13.32;;;7.65;;
53269;SDS011;39159;45.634;9.420;2023-06-22T00:52:54;11.00;;;7.47;;
53269;SDS011;39159;45.634;9.420;2023-06-22T00:55:22;17.08;;;7.90;;
53269;SDS011;39159;45.634;9.420;2023-06-22T00:57:48;15.68;;;7.78;;
53269;SDS011;39159;45.634;9.420;2023-06-22T01:00:14;15.77;;;7.97;;
53269;SDS011;39159;45.634;9.420;2023-06-22T01:02:42;14.38;;;7.32;;
53269;SDS011;39159;45.634;9.420;2023-06-22T01:05:11;9.98;;;6.55;;
53269;SDS011;39159;45.634;9.420;2023-06-22T01:10:46;14.52;;;8.02;;
53269;SDS011;39159;45.634;9.420;2023-06-22T01:13:16;12.43;;;7.70;;
53269;SDS011;39159;45.634;9.420;2023-06-22T01:15:53;14.63;;;7.38;;
53269;SDS011;39159;45.634;9.420;2023-06-22T01:18:28;13.32;;;7.00;;
53269;SDS011;39159;45.634;9.420;2023-06-22T01:20:55;13.38;;;7.03;;
53269;SDS011;39159;45.634;9.420;2023-06-22T01:23:29;13.85;;;7.47;;
53269;SDS011;39159;45.634;9.420;2023-06-22T01:26:17;11.52;;;7.40;;
53269;SDS011;39159;45.634;9.420;2023-06-22T01:28:50;16.25;;;7.90;;
53269;SDS011;39159;45.634;9.420;2023-06-22T01:31:20;13.93;;;7.72;;
53269;SDS011;39159;45.634;9.420;2023-06-22T01:33:50;13.02;;;7.47;;
53269;SDS011;39159;45.634;9.420;2023-06-22T01:36:17;14.05;;;8.20;;
53269;SDS011;39159;45.634;9.420;2023-06-22T01:38:44;16.50;;;7.32;;
53269;SDS011;39159;45.634;9.420;2023-06-22T01:41:10;12.95;;;7.70;;
53269;SDS011;39159;45.634;9.420;2023-06-22T01:43:37;14.13;;;8.23;;
53269;SDS011;39159;45.634;9.420;2023-06-22T01:46:03;12.88;;;7.40;;
53269;SDS011;39159;45.634;9.420;2023-06-22T01:48:30;14.20;;;7.30;;
53269;SDS011;39159;45.634;9.420;2023-06-22T01:50:56;14.73;;;7.65;;
53269;SDS011;39159;45.634;9.420;2023-06-22T01:53:22;11.27;;;7.72;;
53269;SDS011;39159;45.634;9.420;2023-06-22T01:55:48;18.92;;;8.27;;
53269;SDS011;39159;45.634;9.420;2023-06-22T01:58:14;13.07;;;7.63;;
53269;SDS011;39159;45.634;9.420;2023-06-22T02:00:41;10.00;;;7.43;;
53269;SDS011;39159;45.634;9.420;2023-06-22T02:03:14;17.23;;;7.60;;
53269;SDS011;39159;45.634;9.420;2023-06-22T02:05:49;14.02;;;8.05;;
53269;SDS011;39159;45.634;9.420;2023-06-22T02:08:25;10.60;;;7.80;;
53269;SDS011;39159;45.634;9.420;2023-06-22T02:10:55;14.77;;;7.70;;
53269;SDS011;39159;45.634;9.420;2023-06-22T02:13:24;17.77;;;7.47;;
53269;SDS011;39159;45.634;9.420;2023-06-22T02:15:50;10.38;;;7.47;;
53269;SDS011;39159;45.634;9.420;2023-06-22T02:18:16;11.60;;;8.23;;
53269;SDS011;39159;45.634;9.420;2023-06-22T02:20:42;21.10;;;8.45;;
53269;SDS011;39159;45.634;9.420;2023-06-22T02:23:07;17.92;;;7.97;;
53269;SDS011;39159;45.634;9.420;2023-06-22T02:25:33;15.27;;;7.90;;
53269;SDS011;39159;45.634;9.420;2023-06-22T02:28:00;14.30;;;7.80;;
53269;SDS011;39159;45.634;9.420;2023-06-22T02:30:25;16.90;;;8.00;;
53269;SDS011;39159;45.634;9.420;2023-06-22T02:32:51;11.90;;;7.15;;
53269;SDS011;39159;45.634;9.420;2023-06-22T02:35:24;16.92;;;8.20;;
53269;SDS011;39159;45.634;9.420;2023-06-22T02:37:56;10.70;;;7.53;;
53269;SDS011;39159;45.634;9.420;2023-06-22T02:40:26;16.60;;;8.02;;
53269;SDS011;39159;45.634;9.420;2023-06-22T02:42:52;12.88;;;7.28;;
53269;SDS011;39159;45.634;9.420;2023-06-22T02:45:17;15.18;;;8.05;;
53269;SDS011;39159;45.634;9.420;2023-06-22T02:47:43;12.00;;;7.75;;
53269;SDS011;39159;45.634;9.420;2023-06-22T02:50:09;13.48;;;7.50;;
53269;SDS011;39159;45.634;9.420;2023-06-22T02:52:35;16.73;;;7.88;;
53269;SDS011;39159;45.634;9.420;2023-06-22T02:55:00;11.27;;;7.70;;
53269;SDS011;39159;45.634;9.420;2023-06-22T02:57:26;9.50;;;7.25;;
53269;SDS011;39159;45.634;9.420;2023-06-22T02:59:51;13.75;;;7.38;;
53269;SDS011;39159;45.634;9.420;2023-06-22T03:02:17;14.88;;;7.90;;
53269;SDS011;39159;45.634;9.420;2023-06-22T03:04:43;13.60;;;7.72;;
53269;SDS011;39159;45.634;9.420;2023-06-22T03:07:09;13.55;;;8.00;;
53269;SDS011;39159;45.634;9.420;2023-06-22T03:09:34;11.27;;;7.68;;
53269;SDS011;39159;45.634;9.420;2023-06-22T03:12:00;11.95;;;7.63;;
53269;SDS011;39159;45.634;9.420;2023-06-22T03:14:27;13.75;;;7.68;;
53269;SDS011;39159;45.634;9.420;2023-06-22T03:16:52;11.43;;;7.53;;
53269;SDS011;39159;45.634;9.420;2023-06-22T03:19:18;12.48;;;7.70;;
53269;SDS011;39159;45.634;9.420;2023-06-22T03:21:44;13.60;;;8.05;;
53269;SDS011;39159;45.634;9.420;2023-06-22T03:24:10;13.27;;;7.97;;
53269;SDS011;39159;45.634;9.420;2023-06-22T03:26:35;9.90;;;7.53;;
53269;SDS011;39159;45.634;9.420;2023-06-22T03:29:00;10.82;;;7.22;;
53269;SDS011;39159;45.634;9.420;2023-06-22T03:31:26;14.98;;;8.20;;
53269;SDS011;39159;45.634;9.420;2023-06-22T03:33:51;14.05;;;7.22;;
53269;SDS011;39159;45.634;9.420;2023-06-22T03:36:17;14.05;;;7.88;;
53269;SDS011;39159;45.634;9.420;2023-06-22T03:38:47;15.13;;;7.97;;
53269;SDS011;39159;45.634;9.420;2023-06-22T03:41:13;12.90;;;7.85;;
53269;SDS011;39159;45.634;9.420;2023-06-22T03:43:39;11.55;;;7.47;;
53269;SDS011;39159;45.634;9.420;2023-06-22T03:46:05;11.75;;;7.47;;
53269;SDS011;39159;45.634;9.420;2023-06-22T03:48:30;14.27;;;7.30;;
53269;SDS011;39159;45.634;9.420;2023-06-22T03:50:56;11.38;;;7.20;;
53269;SDS011;39159;45.634;9.420;2023-06-22T03:53:21;11.48;;;7.22;;
53269;SDS011;39159;45.634;9.420;2023-06-22T03:55:50;11.27;;;7.20;;
53269;SDS011;39159;45.634;9.420;2023-06-22T03:58:17;17.67;;;8.65;;
53269;SDS011;39159;45.634;9.420;2023-06-22T04:00:47;12.98;;;8.15;;
53269;SDS011;39159;45.634;9.420;2023-06-22T04:03:13;14.38;;;7.10;;
53269;SDS011;39159;45.634;9.420;2023-06-22T04:05:40;10.23;;;6.88;;
53269;SDS011;39159;45.634;9.420;2023-06-22T04:08:06;13.13;;;7.18;;
53269;SDS011;39159;45.634;9.420;2023-06-22T04:10:32;14.00;;;7.35;;
53269;SDS011;39159;45.634;9.420;2023-06-22T04:12:57;14.80;;;7.43;;
53269;SDS011;39159;45.634;9.420;2023-06-22T04:15:23;13.65;;;6.90;;
53269;SDS011;39159;45.634;9.420;2023-06-22T04:17:48;10.35;;;6.65;;
53269;SDS011;39159;45.634;9.420;2023-06-22T04:20:14;15.00;;;7.57;;
53269;SDS011;39159;45.634;9.420;2023-06-22T04:22:39;14.77;;;7.22;;
53269;SDS011;39159;45.634;9.420;2023-06-22T04:25:05;16.02;;;7.38;;
53269;SDS011;39159;45.634;9.420;2023-06-22T04:27:32;16.98;;;6.97;;
53269;SDS011;39159;45.634;9.420;2023-06-22T04:30:02;20.15;;;7.72;;
53269;SDS011;39159;45.634;9.420;2023-06-22T04:32:28;16.77;;;7.97;;
53269;SDS011;39159;45.634;9.420;2023-06-22T04:34:54;19.83;;;7.43;;
53269;SDS011;39159;45.634;9.420;2023-06-22T04:37:20;18.30;;;7.15;;
53269;SDS011;39159;45.634;9.420;2023-06-22T04:39:48;15.30;;;6.88;;
53269;SDS011;39159;45.634;9.420;2023-06-22T04:42:15;13.63;;;7.55;;
53269;SDS011;39159;45.634;9.420;2023-06-22T04:44:40;15.52;;;8.35;;
53269;SDS011;39159;45.634;9.420;2023-06-22T04:47:07;16.95;;;7.57;;
53269;SDS011;39159;45.634;9.420;2023-06-22T04:49:33;18.63;;;7.28;;
53269;SDS011;39159;45.634;9.420;2023-06-22T04:52:06;15.43;;;8.25;;
53269;SDS011;39159;45.634;9.420;2023-06-22T04:54:32;18.65;;;7.80;;
53269;SDS011;39159;45.634;9.420;2023-06-22T04:57:00;17.30;;;7.47;;
53269;SDS011;39159;45.634;9.420;2023-06-22T04:59:34;20.83;;;7.80;;
53269;SDS011;39159;45.634;9.420;2023-06-22T05:02:01;12.32;;;7.15;;
53269;SDS011;39159;45.634;9.420;2023-06-22T05:04:28;17.52;;;7.45;;
53269;SDS011;39159;45.634;9.420;2023-06-22T05:06:56;14.57;;;7.60;;
53269;SDS011;39159;45.634;9.420;2023-06-22T05:09:23;14.90;;;6.97;;
53269;SDS011;39159;45.634;9.420;2023-06-22T05:11:50;15.57;;;7.63;;
53269;SDS011;39159;45.634;9.420;2023-06-22T05:14:16;13.10;;;7.43;;
53269;SDS011;39159;45.634;9.420;2023-06-22T05:16:42;19.50;;;7.85;;
53269;SDS011;39159;45.634;9.420;2023-06-22T05:19:08;19.83;;;6.90;;
53269;SDS011;39159;45.634;9.420;2023-06-22T05:21:33;19.73;;;7.15;;
53269;SDS011;39159;45.634;9.420;2023-06-22T05:23:59;18.00;;;7.15;;
53269;SDS011;39159;45.634;9.420;2023-06-22T05:26:27;17.15;;;7.28;;
53269;SDS011;39159;45.634;9.420;2023-06-22T05:28:53;15.77;;;7.43;;
53269;SDS011;39159;45.634;9.420;2023-06-22T05:31:19;20.40;;;7.38;;
53269;SDS011;39159;45.634;9.420;2023-06-22T05:33:45;13.40;;;7.38;;
53269;SDS011;39159;45.634;9.420;2023-06-22T05:36:11;17.42;;;7.22;;
53269;SDS011;39159;45.634;9.420;2023-06-22T05:38:37;15.02;;;7.07;;
53269;SDS011;39159;45.634;9.420;2023-06-22T05:41:03;16.45;;;7.40;;
53269;SDS011;39159;45.634;9.420;2023-06-22T05:43:29;20.60;;;7.28;;
53269;SDS011;39159;45.634;9.420;2023-06-22T05:45:55;15.57;;;6.68;;
53269;SDS011;39159;45.634;9.420;2023-06-22T05:48:20;12.77;;;7.28;;
53269;SDS011;39159;45.634;9.420;2023-06-22T05:50:46;14.40;;;7.53;;
53269;SDS011;39159;45.634;9.420;2023-06-22T05:53:11;12.30;;;6.50;;
53269;SDS011;39159;45.634;9.420;2023-06-22T05:55:37;11.93;;;6.30;;
53269;SDS011;39159;45.634;9.420;2023-06-22T05:58:02;8.68;;;5.65;;
53269;SDS011;39159;45.634;9.420;2023-06-22T06:00:31;10.68;;;6.25;;
53269;SDS011;39159;45.634;9.420;2023-06-22T06:02:56;33.88;;;8.35;;
53269;SDS011;39159;45.634;9.420;2023-06-22T06:05:22;25.83;;;8.02;;
53269;SDS011;39159;45.634;9.420;2023-06-22T06:07:49;33.53;;;7.75;;
53269;SDS011;39159;45.634;9.420;2023-06-22T06:10:14;11.07;;;6.38;;
53269;SDS011;39159;45.634;9.420;2023-06-22T06:12:40;11.13;;;6.30;;
53269;SDS011;39159;45.634;9.420;2023-06-22T06:15:05;13.35;;;6.70;;
53269;SDS011;39159;45.634;9.420;2023-06-22T06:17:31;12.98;;;6.60;;
53269;SDS011;39159;45.634;9.420;2023-06-22T06:19:56;13.93;;;6.78;;
53269;SDS011;39159;45.634;9.420;2023-06-22T06:22:23;15.95;;;6.50;;
53269;SDS011;39159;45.634;9.420;2023-06-22T06:24:49;22.38;;;6.95;;
53269;SDS011;39159;45.634;9.420;2023-06-22T06:27:14;27.88;;;8.73;;
53269;SDS011;39159;45.634;9.420;2023-06-22T06:29:43;16.10;;;7.97;;
53269;SDS011;39159;45.634;9.420;2023-06-22T06:32:10;11.75;;;6.80;;
53269;SDS011;39159;45.634;9.420;2023-06-22T06:34:36;16.67;;;8.52;;
53269;SDS011;39159;45.634;9.420;2023-06-22T06:37:01;17.40;;;7.97;;
53269;SDS011;39159;45.634;9.420;2023-06-22T06:39:27;15.40;;;7.50;;
53269;SDS011;39159;45.634;9.420;2023-06-22T06:41:52;18.17;;;7.60;;
53269;SDS011;39159;45.634;9.420;2023-06-22T06:44:18;14.55;;;7.47;;
53269;SDS011;39159;45.634;9.420;2023-06-22T06:46:43;15.20;;;8.43;;
53269;SDS011;39159;45.634;9.420;2023-06-22T06:49:09;16.40;;;8.35;;
53269;SDS011;39159;45.634;9.420;2023-06-22T06:51:34;15.50;;;7.60;;
53269;SDS011;39159;45.634;9.420;2023-06-22T06:54:00;18.85;;;7.85;;
53269;SDS011;39159;45.634;9.420;2023-06-22T06:56:25;17.63;;;7.72;;
53269;SDS011;39159;45.634;9.420;2023-06-22T06:58:51;18.25;;;8.07;;
53269;SDS011;39159;45.634;9.420;2023-06-22T07:01:16;16.63;;;7.78;;
53269;SDS011;39159;45.634;9.420;2023-06-22T07:03:42;20.52;;;7.93;;
53269;SDS011;39159;45.634;9.420;2023-06-22T07:06:08;16.85;;;7.55;;
53269;SDS011;39159;45.634;9.420;2023-06-22T07:08:34;19.98;;;7.93;;
53269;SDS011;39159;45.634;9.420;2023-06-22T07:11:01;22.88;;;7.93;;
53269;SDS011;39159;45.634;9.420;2023-06-22T07:13:27;14.27;;;6.63;;
53269;SDS011;39159;45.634;9.420;2023-06-22T07:15:53;19.42;;;7.28;;
53269;SDS011;39159;45.634;9.420;2023-06-22T07:18:18;13.30;;;6.82;;
53269;SDS011;39159;45.634;9.420;2023-06-22T07:20:43;12.85;;;6.63;;
53269;SDS011;39159;45.634;9.420;2023-06-22T07:23:09;14.48;;;6.25;;
53269;SDS011;39159;45.634;9.420;2023-06-22T07:25:34;11.00;;;6.57;;
53269;SDS011;39159;45.634;9.420;2023-06-22T07:30:30;12.10;;;6.45;;
53269;SDS011;39159;45.634;9.420;2023-06-22T07:32:57;11.88;;;6.53;;
53269;SDS011;39159;45.634;9.420;2023-06-22T07:35:23;10.63;;;5.95;;
53269;SDS011;39159;45.634;9.420;2023-06-22T07:37:50;21.48;;;6.72;;
53269;SDS011;39159;45.634;9.420;2023-06-22T07:40:15;13.38;;;6.13;;
53269;SDS011;39159;45.634;9.420;2023-06-22T07:42:41;13.48;;;6.43;;
53269;SDS011;39159;45.634;9.420;2023-06-22T07:45:07;11.80;;;6.03;;
53269;SDS011;39159;45.634;9.420;2023-06-22T07:47:33;11.55;;;6.03;;
53269;SDS011;39159;45.634;9.420;2023-06-22T07:50:00;10.00;;;5.57;;
53269;SDS011;39159;45.634;9.420;2023-06-22T07:52:29;13.70;;;6.45;;
53269;SDS011;39159;45.634;9.420;2023-06-22T07:54:55;16.77;;;6.85;;
53269;SDS011;39159;45.634;9.420;2023-06-22T07:57:20;13.45;;;6.75;;
53269;SDS011;39159;45.634;9.420;2023-06-22T07:59:46;16.85;;;6.35;;
53269;SDS011;39159;45.634;9.420;2023-06-22T08:02:12;13.73;;;6.95;;
53269;SDS011;39159;45.634;9.420;2023-06-22T08:04:38;16.42;;;6.32;;
53269;SDS011;39159;45.634;9.420;2023-06-22T08:07:04;11.73;;;6.20;;
53269;SDS011;39159;45.634;9.420;2023-06-22T08:09:31;10.20;;;5.80;;
53269;SDS011;39159;45.634;9.420;2023-06-22T08:11:57;14.50;;;6.45;;
53269;SDS011;39159;45.634;9.420;2023-06-22T08:14:25;18.38;;;7.72;;
53269;SDS011;39159;45.634;9.420;2023-06-22T08:16:51;15.65;;;6.07;;
53269;SDS011;39159;45.634;9.420;2023-06-22T08:19:16;13.18;;;6.20;;
53269;SDS011;39159;45.634;9.420;2023-06-22T08:21:42;12.77;;;6.50;;
53269;SDS011;39159;45.634;9.420;2023-06-22T08:24:08;16.48;;;7.05;;
53269;SDS011;39159;45.634;9.420;2023-06-22T08:26:35;17.40;;;6.50;;
53269;SDS011;39159;45.634;9.420;2023-06-22T08:29:02;17.50;;;6.35;;
53269;SDS011;39159;45.634;9.420;2023-06-22T08:31:28;14.32;;;7.40;;
53269;SDS011;39159;45.634;9.420;2023-06-22T08:33:54;16.58;;;7.53;;
53269;SDS011;39159;45.634;9.420;2023-06-22T08:36:19;20.17;;;7.53;;
53269;SDS011;39159;45.634;9.420;2023-06-22T08:38:45;17.60;;;6.55;;
53269;SDS011;39159;45.634;9.420;2023-06-22T08:41:15;13.35;;;7.07;;
53269;SDS011;39159;45.634;9.420;2023-06-22T08:43:41;17.83;;;7.22;;
53269;SDS011;39159;45.634;9.420;2023-06-22T08:46:08;13.80;;;6.70;;
53269;SDS011;39159;45.634;9.420;2023-06-22T08:48:33;17.88;;;7.13;;
53269;SDS011;39159;45.634;9.420;2023-06-22T08:50:59;19.88;;;6.95;;
53269;SDS011;39159;45.634;9.420;2023-06-22T08:53:24;18.02;;;8.10;;
53269;SDS011;39159;45.634;9.420;2023-06-22T08:55:50;14.27;;;6.82;;
53269;SDS011;39159;45.634;9.420;2023-06-22T08:58:15;12.98;;;6.60;;
53269;SDS011;39159;45.634;9.420;2023-06-22T09:00:41;13.80;;;7.20;;
53269;SDS011;39159;45.634;9.420;2023-06-22T09:03:07;12.10;;;6.28;;
53269;SDS011;39159;45.634;9.420;2023-06-22T09:05:33;14.35;;;6.57;;
53269;SDS011;39159;45.634;9.420;2023-06-22T09:07:58;15.73;;;6.65;;
53269;SDS011;39159;45.634;9.420;2023-06-22T09:10:24;14.93;;;7.05;;
53269;SDS011;39159;45.634;9.420;2023-06-22T09:12:50;9.93;;;6.00;;
53269;SDS011;39159;45.634;9.420;2023-06-22T09:15:16;13.45;;;6.63;;
53269;SDS011;39159;45.634;9.420;2023-06-22T09:17:41;16.35;;;6.72;;
53269;SDS011;39159;45.634;9.420;2023-06-22T09:20:07;12.00;;;6.75;;
53269;SDS011;39159;45.634;9.420;2023-06-22T09:22:35;19.52;;;6.28;;
53269;SDS011;39159;45.634;9.420;2023-06-22T09:25:01;15.05;;;6.55;;
53269;SDS011;39159;45.634;9.420;2023-06-22T09:27:27;11.77;;;5.97;;
53269;SDS011;39159;45.634;9.420;2023-06-22T09:29:53;10.95;;;6.38;;
53269;SDS011;39159;45.634;9.420;2023-06-22T09:32:18;12.82;;;6.03;;
53269;SDS011;39159;45.634;9.420;2023-06-22T09:34:44;12.98;;;6.25;;
53269;SDS011;39159;45.634;9.420;2023-06-22T09:37:09;11.75;;;6.65;;
53269;SDS011;39159;45.634;9.420;2023-06-22T09:39:35;14.43;;;6.90;;
53269;SDS011;39159;45.634;9.420;2023-06-22T09:42:01;11.15;;;6.45;;
53269;SDS011;39159;45.634;9.420;2023-06-22T09:44:27;12.27;;;6.00;;
53269;SDS011;39159;45.634;9.420;2023-06-22T09:46:53;11.43;;;5.50;;
53269;SDS011;39159;45.634;9.420;2023-06-22T09:49:18;11.98;;;5.40;;
53269;SDS011;39159;45.634;9.420;2023-06-22T09:51:44;12.68;;;5.70;;
53269;SDS011;39159;45.634;9.420;2023-06-22T09:54:09;13.43;;;5.88;;
53269;SDS011;39159;45.634;9.420;2023-06-22T09:56:34;35.30;;;6.53;;
53269;SDS011;39159;45.634;9.420;2023-06-22T09:59:00;12.90;;;5.63;;
53269;SDS011;39159;45.634;9.420;2023-06-22T10:01:25;10.43;;;5.53;;
53269;SDS011;39159;45.634;9.420;2023-06-22T10:03:55;7.13;;;4.82;;
53269;SDS011;39159;45.634;9.420;2023-06-22T10:06:21;11.18;;;5.53;;
53269;SDS011;39159;45.634;9.420;2023-06-22T10:08:47;12.60;;;5.70;;
53269;SDS011;39159;45.634;9.420;2023-06-22T10:11:13;13.55;;;5.40;;
53269;SDS011;39159;45.634;9.420;2023-06-22T10:13:39;10.80;;;5.43;;
53269;SDS011;39159;45.634;9.420;2023-06-22T10:16:04;11.07;;;5.60;;
53269;SDS011;39159;45.634;9.420;2023-06-22T10:18:30;11.65;;;5.47;;
53269;SDS011;39159;45.634;9.420;2023-06-22T10:20:55;10.90;;;5.38;;
53269;SDS011;39159;45.634;9.420;2023-06-22T10:23:21;34.20;;;6.50;;
53269;SDS011;39159;45.634;9.420;2023-06-22T10:25:47;13.50;;;6.32;;
53269;SDS011;39159;45.634;9.420;2023-06-22T10:28:13;12.63;;;5.80;;
53269;SDS011;39159;45.634;9.420;2023-06-22T10:30:39;16.50;;;6.03;;
53269;SDS011;39159;45.634;9.420;2023-06-22T10:33:08;8.82;;;5.28;;
53269;SDS011;39159;45.634;9.420;2023-06-22T10:35:35;13.27;;;6.13;;
53269;SDS011;39159;45.634;9.420;2023-06-22T10:38:02;15.68;;;6.22;;
53269;SDS011;39159;45.634;9.420;2023-06-22T10:40:28;16.63;;;6.13;;
53269;SDS011;39159;45.634;9.420;2023-06-22T10:42:54;13.45;;;5.93;;
53269;SDS011;39159;45.634;9.420;2023-06-22T10:45:20;10.23;;;5.47;;
53269;SDS011;39159;45.634;9.420;2023-06-22T10:47:45;13.50;;;5.03;;
53269;SDS011;39159;45.634;9.420;2023-06-22T10:50:11;13.13;;;5.63;;
53269;SDS011;39159;45.634;9.420;2023-06-22T10:52:37;8.80;;;5.35;;
53269;SDS011;39159;45.634;9.420;2023-06-22T10:55:02;14.13;;;5.22;;
53269;SDS011;39159;45.634;9.420;2023-06-22T10:57:28;13.20;;;5.22;;
53269;SDS011;39159;45.634;9.420;2023-06-22T10:59:54;9.90;;;5.00;;
53269;SDS011;39159;45.634;9.420;2023-06-22T11:02:19;11.13;;;5.15;;
53269;SDS011;39159;45.634;9.420;2023-06-22T11:04:45;12.95;;;5.85;;
53269;SDS011;39159;45.634;9.420;2023-06-22T11:07:11;17.52;;;5.88;;
53269;SDS011;39159;45.634;9.420;2023-06-22T11:09:36;16.70;;;5.47;;
53269;SDS011;39159;45.634;9.420;2023-06-22T11:12:03;20.92;;;5.80;;
53269;SDS011;39159;45.634;9.420;2023-06-22T11:14:29;12.63;;;5.55;;
53269;SDS011;39159;45.634;9.420;2023-06-22T11:16:54;11.13;;;5.82;;
53269;SDS011;39159;45.634;9.420;2023-06-22T11:19:21;12.65;;;6.00;;
53269;SDS011;39159;45.634;9.420;2023-06-22T11:21:46;17.77;;;6.00;;
53269;SDS011;39159;45.634;9.420;2023-06-22T11:24:12;10.75;;;5.22;;
53269;SDS011;39159;45.634;9.420;2023-06-22T11:26:37;23.23;;;6.03;;
53269;SDS011;39159;45.634;9.420;2023-06-22T11:29:03;11.60;;;5.72;;
53269;SDS011;39159;45.634;9.420;2023-06-22T11:31:33;12.73;;;5.15;;
53269;SDS011;39159;45.634;9.420;2023-06-22T11:33:59;10.05;;;5.20;;
53269;SDS011;39159;45.634;9.420;2023-06-22T11:36:25;14.00;;;5.57;;
53269;SDS011;39159;45.634;9.420;2023-06-22T11:38:51;12.70;;;6.18;;
53269;SDS011;39159;45.634;9.420;2023-06-22T11:41:16;12.68;;;5.53;;
53269;SDS011;39159;45.634;9.420;2023-06-22T11:43:42;12.38;;;5.72;;
53269;SDS011;39159;45.634;9.420;2023-06-22T11:46:07;9.25;;;5.25;;
53269;SDS011;39159;45.634;9.420;2023-06-22T11:48:33;12.18;;;5.85;;
53269;SDS011;39159;45.634;9.420;2023-06-22T11:50:58;14.55;;;6.30;;
53269;SDS011;39159;45.634;9.420;2023-06-22T11:53:24;12.07;;;5.55;;
53269;SDS011;39159;45.634;9.420;2023-06-22T11:55:51;15.60;;;5.97;;
53269;SDS011;39159;45.634;9.420;2023-06-22T11:58:17;12.43;;;6.22;;
53269;SDS011;39159;45.634;9.420;2023-06-22T12:00:43;11.65;;;5.80;;
53269;SDS011;39159;45.634;9.420;2023-06-22T12:03:09;11.88;;;5.97;;
53269;SDS011;39159;45.634;9.420;2023-06-22T12:05:36;13.70;;;6.90;;
53269;SDS011;39159;45.634;9.420;2023-06-22T12:08:01;15.05;;;6.20;;
53269;SDS011;39159;45.634;9.420;2023-06-22T12:10:27;12.60;;;5.80;;
53269;SDS011;39159;45.634;9.420;2023-06-22T12:12:55;19.38;;;6.22;;
53269;SDS011;39159;45.634;9.420;2023-06-22T12:15:22;13.65;;;5.88;;
53269;SDS011;39159;45.634;9.420;2023-06-22T12:17:48;11.45;;;5.70;;
53269;SDS011;39159;45.634;9.420;2023-06-22T12:20:13;14.48;;;5.78;;
53269;SDS011;39159;45.634;9.420;2023-06-22T12:22:40;13.30;;;5.50;;
53269;SDS011;39159;45.634;9.420;2023-06-22T12:25:06;11.70;;;5.45;;
53269;SDS011;39159;45.634;9.420;2023-06-22T12:27:32;12.77;;;5.50;;
53269;SDS011;39159;45.634;9.420;2023-06-22T12:29:58;15.75;;;5.85;;
53269;SDS011;39159;45.634;9.420;2023-06-22T12:32:23;11.88;;;5.70;;
53269;SDS011;39159;45.634;9.420;2023-06-22T12:34:49;12.65;;;5.18;;
53269;SDS011;39159;45.634;9.420;2023-06-22T12:37:15;15.20;;;5.53;;
53269;SDS011;39159;45.634;9.420;2023-06-22T12:39:40;11.13;;;5.57;;
53269;SDS011;39159;45.634;9.420;2023-06-22T12:42:06;8.73;;;5.10;;
53269;SDS011;39159;45.634;9.420;2023-06-22T12:44:34;11.98;;;5.53;;
53269;SDS011;39159;45.634;9.420;2023-06-22T12:47:00;12.30;;;5.93;;
53269;SDS011;39159;45.634;9.420;2023-06-22T12:49:25;10.02;;;6.18;;
53269;SDS011;39159;45.634;9.420;2023-06-22T12:51:51;14.25;;;6.30;;
53269;SDS011;39159;45.634;9.420;2023-06-22T12:54:16;14.52;;;6.22;;
53269;SDS011;39159;45.634;9.420;2023-06-22T12:56:42;16.15;;;6.35;;
53269;SDS011;39159;45.634;9.420;2023-06-22T12:59:10;17.90;;;6.35;;
53269;SDS011;39159;45.634;9.420;2023-06-22T13:01:35;12.02;;;6.68;;
53269;SDS011;39159;45.634;9.420;2023-06-22T13:04:01;12.73;;;6.50;;
53269;SDS011;39159;45.634;9.420;2023-06-22T13:06:27;11.88;;;6.75;;
53269;SDS011;39159;45.634;9.420;2023-06-22T13:08:53;15.80;;;6.72;;
53269;SDS011;39159;45.634;9.420;2023-06-22T13:11:18;20.00;;;7.57;;
53269;SDS011;39159;45.634;9.420;2023-06-22T13:13:44;13.35;;;6.57;;
53269;SDS011;39159;45.634;9.420;2023-06-22T13:16:10;14.48;;;7.18;;
53269;SDS011;39159;45.634;9.420;2023-06-22T13:18:36;10.88;;;6.95;;
53269;SDS011;39159;45.634;9.420;2023-06-22T13:21:02;19.58;;;7.50;;
53269;SDS011;39159;45.634;9.420;2023-06-22T13:23:28;13.43;;;6.68;;
53269;SDS011;39159;45.634;9.420;2023-06-22T13:25:53;13.52;;;6.80;;
53269;SDS011;39159;45.634;9.420;2023-06-22T13:28:19;15.65;;;7.22;;
53269;SDS011;39159;45.634;9.420;2023-06-22T13:30:46;10.57;;;6.63;;
53269;SDS011;39159;45.634;9.420;2023-06-22T13:33:12;10.23;;;6.72;;
53269;SDS011;39159;45.634;9.420;2023-06-22T13:35:38;11.52;;;6.35;;
53269;SDS011;39159;45.634;9.420;2023-06-22T13:38:04;17.08;;;6.85;;
53269;SDS011;39159;45.634;9.420;2023-06-22T13:40:30;11.82;;;6.38;;
53269;SDS011;39159;45.634;9.420;2023-06-22T13:42:55;15.80;;;6.75;;
53269;SDS011;39159;45.634;9.420;2023-06-22T13:45:21;17.13;;;6.47;;
53269;SDS011;39159;45.634;9.420;2023-06-22T13:47:46;17.38;;;7.75;;
53269;SDS011;39159;45.634;9.420;2023-06-22T13:50:12;16.35;;;6.97;;
53269;SDS011;39159;45.634;9.420;2023-06-22T13:52:38;19.08;;;7.20;;
53269;SDS011;39159;45.634;9.420;2023-06-22T13:55:04;15.20;;;7.15;;
53269;SDS011;39159;45.634;9.420;2023-06-22T13:57:30;12.45;;;6.95;;
53269;SDS011;39159;45.634;9.420;2023-06-22T13:59:56;13.13;;;6.60;;
53269;SDS011;39159;45.634;9.420;2023-06-22T14:02:21;15.98;;;7.22;;
53269;SDS011;39159;45.634;9.420;2023-06-22T14:04:47;16.13;;;7.70;;
53269;SDS011;39159;45.634;9.420;2023-06-22T14:07:12;11.10;;;7.00;;
53269;SDS011;39159;45.634;9.420;2023-06-22T14:09:38;13.02;;;6.85;;
53269;SDS011;39159;45.634;9.420;2023-06-22T14:12:04;16.13;;;6.97;;
53269;SDS011;39159;45.634;9.420;2023-06-22T14:14:31;14.23;;;6.90;;
53269;SDS011;39159;45.634;9.420;2023-06-22T14:16:58;13.10;;;6.50;;
53269;SDS011;39159;45.634;9.420;2023-06-22T14:19:23;11.52;;;6.68;;
53269;SDS011;39159;45.634;9.420;2023-06-22T14:21:49;11.27;;;6.80;;
53269;SDS011;39159;45.634;9.420;2023-06-22T14:24:15;13.45;;;6.80;;
53269;SDS011;39159;45.634;9.420;2023-06-22T14:26:40;12.25;;;6.63;;
53269;SDS011;39159;45.634;9.420;2023-06-22T14:29:06;13.90;;;6.93;;
53269;SDS011;39159;45.634;9.420;2023-06-22T14:31:31;16.90;;;5.82;;
53269;SDS011;39159;45.634;9.420;2023-06-22T14:33:57;14.55;;;6.30;;
53269;SDS011;39159;45.634;9.420;2023-06-22T14:36:23;11.63;;;6.35;;